EZY52B LFMN-ELLX
Flight info
| Callsign | EZY52B |
|---|---|
| Flight time | 1h 5m |
| Altitude | 34000 |
| Route | IRMAR DCT KINES DCT VANAS DCT MOBLO DCT UBIMA DCT GILIR DCT PENDU DCT IXILU DCT EPL G21 GIVOR |
| Aircraft | A20N/M-SDE2E3FGHIRWXY/LB1 |
Departure
| Time | 2026-05-01 13:28 |
|---|---|
| Airport | Nice-Côte d'Azur Airport (LFMN) |
Arrival
| Time | 2026-05-01 14:33 |
|---|---|
| Airport | Luxembourg-Findel International Airport (ELLX) |
| Time | Latitude | Longitude | Altitude | Speed | Heading |
|---|---|---|---|---|---|
| 2026-05-01 12:54 | 43.65994 | 7.20715 | 20 ft | 0 kts | 259° |
| 2026-05-01 13:08 | 43.65995 | 7.20716 | 20 ft | 1 kts | 259° |
| 2026-05-01 13:08 | 43.65997 | 7.20734 | 24 ft | 3 kts | 259° |
| 2026-05-01 13:08 | 43.66001 | 7.20763 | 23 ft | 2 kts | 259° |
| 2026-05-01 13:09 | 43.66004 | 7.20782 | 22 ft | 2 kts | 253° |
| 2026-05-01 13:09 | 43.66006 | 7.20791 | 21 ft | 2 kts | 248° |
| 2026-05-01 13:09 | 43.66012 | 7.20808 | 21 ft | 2 kts | 211° |
| 2026-05-01 13:09 | 43.66019 | 7.20813 | 24 ft | 1 kts | 163° |
| 2026-05-01 13:10 | 43.66008 | 7.20819 | 22 ft | 1 kts | 172° |
| 2026-05-01 13:11 | 43.66012 | 7.20819 | 22 ft | 2 kts | 172° |
| 2026-05-01 13:11 | 43.66024 | 7.20814 | 24 ft | 2 kts | 121° |
| 2026-05-01 13:12 | 43.66029 | 7.20810 | 22 ft | 3 kts | 63° |
| 2026-05-01 13:12 | 43.66044 | 7.20812 | 22 ft | 0 kts | 335° |
| 2026-05-01 13:12 | 43.66048 | 7.20811 | 22 ft | 0 kts | 349° |
| 2026-05-01 13:14 | 43.66069 | 7.20805 | 21 ft | 8 kts | 352° |
| 2026-05-01 13:14 | 43.66205 | 7.20779 | 23 ft | 10 kts | 353° |
| 2026-05-01 13:15 | 43.66317 | 7.20735 | 25 ft | 0 kts | 335° |
| 2026-05-01 13:15 | 43.66363 | 7.20730 | 24 ft | 8 kts | 27° |
| 2026-05-01 13:15 | 43.66368 | 7.20752 | 25 ft | 3 kts | 116° |
| 2026-05-01 13:15 | 43.66335 | 7.20806 | 22 ft | 13 kts | 135° |
| 2026-05-01 13:16 | 43.66319 | 7.20933 | 21 ft | 17 kts | 87° |
| 2026-05-01 13:16 | 43.66321 | 7.21001 | 20 ft | 1 kts | 113° |
| 2026-05-01 13:16 | 43.66268 | 7.21001 | 20 ft | 15 kts | 184° |
| 2026-05-01 13:17 | 43.66121 | 7.21034 | 19 ft | 0 kts | 160° |
| 2026-05-01 13:17 | 43.66120 | 7.21035 | 19 ft | 2 kts | 160° |
| 2026-05-01 13:18 | 43.65955 | 7.21107 | 19 ft | 14 kts | 131° |
| 2026-05-01 13:18 | 43.65922 | 7.21124 | 18 ft | 1 kts | 221° |
| 2026-05-01 13:18 | 43.65905 | 7.21095 | 19 ft | 7 kts | 230° |
| 2026-05-01 13:18 | 43.65823 | 7.20940 | 19 ft | 30 kts | 248° |
| 2026-05-01 13:19 | 43.65746 | 7.20858 | 20 ft | 16 kts | 217° |
| 2026-05-01 13:19 | 43.65658 | 7.20740 | 17 ft | 0 kts | 218° |
| 2026-05-01 13:19 | 43.65598 | 7.20669 | 15 ft | 17 kts | 208° |
| 2026-05-01 13:20 | 43.65558 | 7.20683 | 16 ft | 10 kts | 156° |
| 2026-05-01 13:20 | 43.65550 | 7.20688 | 16 ft | 0 kts | 152° |
| 2026-05-01 13:23 | 43.65549 | 7.20689 | 16 ft | 1 kts | 152° |
| 2026-05-01 13:23 | 43.65519 | 7.20699 | 16 ft | 9 kts | 167° |
| 2026-05-01 13:24 | 43.65416 | 7.20720 | 18 ft | 20 kts | 172° |
| 2026-05-01 13:24 | 43.65318 | 7.20802 | 18 ft | 12 kts | 135° |
| 2026-05-01 13:24 | 43.65258 | 7.20836 | 18 ft | 6 kts | 210° |
| 2026-05-01 13:25 | 43.65097 | 7.20612 | 21 ft | 18 kts | 225° |
| 2026-05-01 13:25 | 43.65068 | 7.20570 | 21 ft | 16 kts | 226° |
| 2026-05-01 13:25 | 43.64991 | 7.20460 | 26 ft | 25 kts | 225° |
| 2026-05-01 13:25 | 43.64906 | 7.20345 | 22 ft | 12 kts | 225° |
| 2026-05-01 13:26 | 43.64824 | 7.20235 | 21 ft | 20 kts | 223° |
| 2026-05-01 13:26 | 43.64763 | 7.20185 | 22 ft | 0 kts | 176° |
| 2026-05-01 13:26 | 43.64728 | 7.20205 | 23 ft | 11 kts | 144° |
| 2026-05-01 13:27 | 43.64712 | 7.20298 | 25 ft | 12 kts | 69° |
| 2026-05-01 13:27 | 43.64760 | 7.20368 | 23 ft | 13 kts | 47° |
| 2026-05-01 13:27 | 43.65521 | 7.21415 | 67 ft | 164 kts | 45° |
| 2026-05-01 13:28 | 43.67294 | 7.24082 | 1708 ft | 213 kts | 56° |
| 2026-05-01 13:28 | 43.67934 | 7.26069 | 2678 ft | 238 kts | 76° |
| 2026-05-01 13:29 | 43.67137 | 7.30142 | 5424 ft | 224 kts | 139° |
| 2026-05-01 13:29 | 43.64226 | 7.31598 | 8237 ft | 231 kts | 175° |
| 2026-05-01 13:30 | 43.57771 | 7.29819 | 12298 ft | 252 kts | 211° |
| 2026-05-01 13:31 | 43.55184 | 7.26700 | 12659 ft | 252 kts | 247° |
| 2026-05-01 13:31 | 43.54924 | 7.24148 | 12809 ft | 255 kts | 280° |
| 2026-05-01 13:33 | 43.55802 | 7.21666 | 13781 ft | 266 kts | 308° |
| 2026-05-01 13:33 | 43.58104 | 7.17821 | 16426 ft | 263 kts | 309° |
| 2026-05-01 13:34 | 43.60466 | 7.13885 | 18494 ft | 273 kts | 316° |
| 2026-05-01 13:34 | 43.63892 | 7.11487 | 20324 ft | 290 kts | 342° |
| 2026-05-01 13:35 | 43.68081 | 7.09678 | 21033 ft | 342 kts | 342° |
| 2026-05-01 13:35 | 43.70445 | 7.08642 | 21295 ft | 369 kts | 342° |
| 2026-05-01 13:35 | 43.75606 | 7.06359 | 22137 ft | 405 kts | 342° |
| 2026-05-01 13:36 | 43.78313 | 7.05157 | 22993 ft | 409 kts | 342° |
| 2026-05-01 13:36 | 43.81047 | 7.03942 | 23796 ft | 415 kts | 342° |
| 2026-05-01 13:36 | 43.86580 | 7.01478 | 25505 ft | 420 kts | 342° |
| 2026-05-01 13:37 | 43.89399 | 7.00221 | 26159 ft | 427 kts | 342° |
| 2026-05-01 13:37 | 43.92224 | 6.98960 | 26749 ft | 434 kts | 342° |
| 2026-05-01 13:37 | 43.95120 | 6.97667 | 27414 ft | 438 kts | 342° |
| 2026-05-01 13:37 | 43.98059 | 6.96353 | 27860 ft | 444 kts | 342° |
| 2026-05-01 13:38 | 44.03936 | 6.93723 | 28028 ft | 448 kts | 342° |
| 2026-05-01 13:38 | 44.06909 | 6.92390 | 28028 ft | 449 kts | 342° |
| 2026-05-01 13:39 | 44.12816 | 6.89766 | 28025 ft | 445 kts | 344° |
| 2026-05-01 13:39 | 44.18996 | 6.88354 | 28027 ft | 452 kts | 354° |
| 2026-05-01 13:40 | 44.25220 | 6.87418 | 28025 ft | 448 kts | 353° |
| 2026-05-01 13:40 | 44.31417 | 6.86471 | 28027 ft | 451 kts | 353° |
| 2026-05-01 13:41 | 44.37696 | 6.85517 | 28026 ft | 455 kts | 353° |
| 2026-05-01 13:41 | 44.42688 | 6.84760 | 28029 ft | 453 kts | 353° |
| 2026-05-01 13:42 | 44.48906 | 6.83815 | 28027 ft | 453 kts | 353° |
| 2026-05-01 13:42 | 44.55171 | 6.82861 | 28028 ft | 454 kts | 353° |
| 2026-05-01 13:43 | 44.61446 | 6.81903 | 28029 ft | 453 kts | 353° |
| 2026-05-01 13:43 | 44.67669 | 6.80951 | 28026 ft | 451 kts | 353° |
| 2026-05-01 13:44 | 44.73936 | 6.79991 | 28027 ft | 450 kts | 353° |
| 2026-05-01 13:44 | 44.80123 | 6.79059 | 28026 ft | 452 kts | 355° |
| 2026-05-01 13:45 | 44.86424 | 6.78643 | 28027 ft | 452 kts | 357° |
| 2026-05-01 13:45 | 44.92708 | 6.78224 | 28026 ft | 452 kts | 357° |
| 2026-05-01 13:46 | 44.98916 | 6.77811 | 28028 ft | 448 kts | 357° |
| 2026-05-01 13:46 | 45.05159 | 6.77397 | 28026 ft | 445 kts | 357° |
| 2026-05-01 13:47 | 45.11438 | 6.76980 | 28026 ft | 454 kts | 357° |
| 2026-05-01 13:47 | 45.17399 | 6.76584 | 28031 ft | 457 kts | 357° |
| 2026-05-01 13:48 | 45.23677 | 6.76165 | 28028 ft | 444 kts | 357° |
| 2026-05-01 13:48 | 45.28866 | 6.75818 | 28026 ft | 457 kts | 357° |
| 2026-05-01 13:49 | 45.35248 | 6.75391 | 28027 ft | 458 kts | 357° |
| 2026-05-01 13:49 | 45.41533 | 6.74967 | 28028 ft | 453 kts | 357° |
| 2026-05-01 13:50 | 45.47814 | 6.74543 | 28028 ft | 446 kts | 357° |
| 2026-05-01 13:50 | 45.54117 | 6.74117 | 28026 ft | 449 kts | 357° |
| 2026-05-01 13:51 | 45.60286 | 6.73699 | 28026 ft | 444 kts | 357° |
| 2026-05-01 13:51 | 45.66488 | 6.73277 | 28028 ft | 451 kts | 357° |
| 2026-05-01 13:52 | 45.72764 | 6.72850 | 28027 ft | 452 kts | 357° |
| 2026-05-01 13:52 | 45.79026 | 6.72422 | 28027 ft | 448 kts | 357° |
| 2026-05-01 13:53 | 45.85229 | 6.71998 | 28026 ft | 445 kts | 357° |
| 2026-05-01 13:53 | 45.94489 | 6.71363 | 28026 ft | 442 kts | 357° |
| 2026-05-01 13:54 | 46.00723 | 6.70934 | 28030 ft | 452 kts | 357° |
| 2026-05-01 13:54 | 46.06952 | 6.70505 | 28027 ft | 445 kts | 357° |
| 2026-05-01 13:55 | 46.13071 | 6.69618 | 28030 ft | 447 kts | 348° |
| 2026-05-01 13:55 | 46.19033 | 6.66985 | 28026 ft | 444 kts | 341° |
| 2026-05-01 13:56 | 46.24867 | 6.64164 | 28026 ft | 442 kts | 341° |
| 2026-05-01 13:56 | 46.30700 | 6.61336 | 28027 ft | 442 kts | 341° |
| 2026-05-01 13:57 | 46.36549 | 6.58484 | 28028 ft | 443 kts | 341° |
| 2026-05-01 13:57 | 46.42340 | 6.55651 | 28027 ft | 439 kts | 341° |
| 2026-05-01 13:58 | 46.48167 | 6.52794 | 28028 ft | 440 kts | 341° |
| 2026-05-01 13:58 | 46.53947 | 6.49954 | 28027 ft | 440 kts | 341° |
| 2026-05-01 13:59 | 46.59774 | 6.47085 | 28030 ft | 441 kts | 341° |
| 2026-05-01 13:59 | 46.65565 | 6.44226 | 28027 ft | 441 kts | 341° |
| 2026-05-01 14:00 | 46.71420 | 6.41330 | 28030 ft | 444 kts | 341° |
| 2026-05-01 14:00 | 46.77251 | 6.38438 | 28025 ft | 444 kts | 341° |
| 2026-05-01 14:01 | 46.83097 | 6.35533 | 28028 ft | 444 kts | 341° |
| 2026-05-01 14:01 | 46.88921 | 6.32632 | 28029 ft | 443 kts | 341° |
| 2026-05-01 14:02 | 46.94765 | 6.29714 | 28027 ft | 443 kts | 341° |
| 2026-05-01 14:02 | 47.00580 | 6.26804 | 28026 ft | 441 kts | 341° |
| 2026-05-01 14:03 | 47.06365 | 6.23822 | 28028 ft | 441 kts | 337° |
| 2026-05-01 14:03 | 47.11888 | 6.19901 | 28026 ft | 440 kts | 333° |
| 2026-05-01 14:04 | 47.17381 | 6.15952 | 28031 ft | 440 kts | 334° |
| 2026-05-01 14:04 | 47.22892 | 6.11977 | 28027 ft | 440 kts | 333° |
| 2026-05-01 14:05 | 47.28374 | 6.08005 | 28028 ft | 439 kts | 333° |
| 2026-05-01 14:05 | 47.33968 | 6.04449 | 28027 ft | 440 kts | 344° |
| 2026-05-01 14:06 | 47.40037 | 6.03382 | 28028 ft | 440 kts | 1° |
| 2026-05-01 14:06 | 47.46138 | 6.03532 | 28029 ft | 440 kts | 0° |
| 2026-05-01 14:07 | 47.52277 | 6.03660 | 28027 ft | 441 kts | 0° |
| 2026-05-01 14:08 | 47.61465 | 6.03865 | 28026 ft | 439 kts | 1° |
| 2026-05-01 14:08 | 47.64458 | 6.04454 | 28030 ft | 440 kts | 12° |
| 2026-05-01 14:08 | 47.67448 | 6.05457 | 28026 ft | 440 kts | 12° |
| 2026-05-01 14:09 | 47.73446 | 6.07486 | 28031 ft | 443 kts | 12° |
| 2026-05-01 14:09 | 47.76476 | 6.08510 | 28027 ft | 461 kts | 12° |
| 2026-05-01 14:09 | 47.79649 | 6.09580 | 28026 ft | 468 kts | 12° |
| 2026-05-01 14:10 | 47.86026 | 6.11733 | 28027 ft | 469 kts | 12° |
| 2026-05-01 14:10 | 47.92360 | 6.13876 | 28027 ft | 468 kts | 12° |
| 2026-05-01 14:11 | 47.98723 | 6.16035 | 28029 ft | 468 kts | 12° |
| 2026-05-01 14:11 | 48.08263 | 6.19281 | 28026 ft | 469 kts | 12° |
| 2026-05-01 14:12 | 48.14654 | 6.21463 | 28028 ft | 469 kts | 13° |
| 2026-05-01 14:12 | 48.20990 | 6.23631 | 28029 ft | 469 kts | 13° |
| 2026-05-01 14:13 | 48.26284 | 6.25447 | 28026 ft | 469 kts | 13° |
| 2026-05-01 14:13 | 48.33700 | 6.27997 | 28028 ft | 468 kts | 13° |
| 2026-05-01 14:14 | 48.40036 | 6.30181 | 28026 ft | 468 kts | 13° |
| 2026-05-01 14:14 | 48.46406 | 6.32383 | 28029 ft | 468 kts | 13° |
| 2026-05-01 14:15 | 48.52744 | 6.34579 | 28026 ft | 469 kts | 13° |
| 2026-05-01 14:15 | 48.59079 | 6.36780 | 28028 ft | 468 kts | 13° |
| 2026-05-01 14:16 | 48.65446 | 6.38998 | 28027 ft | 468 kts | 13° |
| 2026-05-01 14:16 | 48.68565 | 6.40136 | 27975 ft | 460 kts | 14° |
| 2026-05-01 14:16 | 48.71627 | 6.41368 | 27771 ft | 443 kts | 15° |
| 2026-05-01 14:17 | 48.74537 | 6.42572 | 27477 ft | 424 kts | 15° |
| 2026-05-01 14:17 | 48.77325 | 6.43725 | 26910 ft | 416 kts | 15° |
| 2026-05-01 14:17 | 48.80117 | 6.44869 | 26194 ft | 413 kts | 15° |
| 2026-05-01 14:17 | 48.82898 | 6.46005 | 25475 ft | 409 kts | 15° |
| 2026-05-01 14:18 | 48.85546 | 6.47100 | 25134 ft | 388 kts | 15° |
| 2026-05-01 14:18 | 48.88112 | 6.48158 | 24522 ft | 374 kts | 15° |
| 2026-05-01 14:18 | 48.90613 | 6.49187 | 23663 ft | 369 kts | 15° |
| 2026-05-01 14:18 | 48.92254 | 6.49867 | 23091 ft | 366 kts | 15° |
| 2026-05-01 14:19 | 48.95499 | 6.51202 | 21967 ft | 360 kts | 15° |
| 2026-05-01 14:19 | 48.97911 | 6.52184 | 21143 ft | 355 kts | 15° |
| 2026-05-01 14:19 | 49.00225 | 6.53120 | 20342 ft | 351 kts | 15° |
| 2026-05-01 14:19 | 49.02615 | 6.54084 | 19516 ft | 347 kts | 15° |
| 2026-05-01 14:20 | 49.04958 | 6.55030 | 18932 ft | 345 kts | 15° |
| 2026-05-01 14:20 | 49.09567 | 6.56895 | 17857 ft | 339 kts | 15° |
| 2026-05-01 14:20 | 49.11820 | 6.57810 | 17329 ft | 336 kts | 15° |
| 2026-05-01 14:21 | 49.14086 | 6.58731 | 16734 ft | 335 kts | 15° |
| 2026-05-01 14:21 | 49.16335 | 6.59655 | 15987 ft | 339 kts | 15° |
| 2026-05-01 14:21 | 49.18626 | 6.60613 | 15255 ft | 341 kts | 15° |
| 2026-05-01 14:22 | 49.23226 | 6.61682 | 13752 ft | 330 kts | 353° |
| 2026-05-01 14:22 | 49.25431 | 6.60832 | 12993 ft | 322 kts | 337° |
| 2026-05-01 14:22 | 49.27437 | 6.59440 | 12264 ft | 316 kts | 335° |
| 2026-05-01 14:22 | 49.29408 | 6.58068 | 11517 ft | 311 kts | 335° |
| 2026-05-01 14:23 | 49.31364 | 6.56711 | 10767 ft | 306 kts | 335° |
| 2026-05-01 14:23 | 49.33298 | 6.55373 | 10019 ft | 302 kts | 335° |
| 2026-05-01 14:23 | 49.35201 | 6.54056 | 9267 ft | 298 kts | 335° |
| 2026-05-01 14:23 | 49.37088 | 6.52749 | 8515 ft | 295 kts | 335° |
| 2026-05-01 14:24 | 49.38935 | 6.51470 | 7765 ft | 292 kts | 335° |
| 2026-05-01 14:24 | 49.40766 | 6.50200 | 7249 ft | 283 kts | 335° |
| 2026-05-01 14:24 | 49.42499 | 6.48998 | 7064 ft | 262 kts | 335° |
| 2026-05-01 14:24 | 49.44128 | 6.47865 | 7026 ft | 257 kts | 335° |
| 2026-05-01 14:25 | 49.45753 | 6.46736 | 7027 ft | 255 kts | 335° |
| 2026-05-01 14:25 | 49.47361 | 6.45623 | 7032 ft | 256 kts | 338° |
| 2026-05-01 14:25 | 49.49086 | 6.45040 | 7023 ft | 249 kts | 357° |
| 2026-05-01 14:25 | 49.50760 | 6.44627 | 7032 ft | 244 kts | 336° |
| 2026-05-01 14:26 | 49.52108 | 6.43069 | 6914 ft | 243 kts | 307° |
| 2026-05-01 14:26 | 49.52905 | 6.38099 | 6067 ft | 250 kts | 273° |
| 2026-05-01 14:26 | 49.52998 | 6.35397 | 5561 ft | 255 kts | 273° |
| 2026-05-01 14:27 | 49.53093 | 6.32640 | 5055 ft | 258 kts | 273° |
| 2026-05-01 14:27 | 49.53187 | 6.29917 | 4558 ft | 256 kts | 273° |
| 2026-05-01 14:27 | 49.53013 | 6.27239 | 4067 ft | 251 kts | 254° |
| 2026-05-01 14:28 | 49.51999 | 6.22151 | 3137 ft | 244 kts | 253° |
| 2026-05-01 14:28 | 49.51508 | 6.19713 | 2959 ft | 229 kts | 253° |
| 2026-05-01 14:28 | 49.51333 | 6.17393 | 2821 ft | 216 kts | 279° |
| 2026-05-01 14:28 | 49.51641 | 6.15176 | 2737 ft | 207 kts | 283° |
| 2026-05-01 14:29 | 49.51966 | 6.13022 | 2730 ft | 208 kts | 283° |
| 2026-05-01 14:29 | 49.52278 | 6.10940 | 2720 ft | 191 kts | 283° |
| 2026-05-01 14:30 | 49.53568 | 6.05393 | 2726 ft | 187 kts | 324° |
| 2026-05-01 14:30 | 49.54796 | 6.04797 | 2728 ft | 190 kts | 3° |
| 2026-05-01 14:30 | 49.56023 | 6.05482 | 2728 ft | 190 kts | 31° |
| 2026-05-01 14:31 | 49.57867 | 6.08360 | 2728 ft | 190 kts | 57° |
| 2026-05-01 14:31 | 49.58547 | 6.10107 | 2495 ft | 195 kts | 60° |
| 2026-05-01 14:31 | 49.59230 | 6.11933 | 2205 ft | 193 kts | 60° |
| 2026-05-01 14:31 | 49.59805 | 6.13482 | 1985 ft | 177 kts | 60° |
| 2026-05-01 14:32 | 49.60336 | 6.14914 | 1779 ft | 164 kts | 60° |
| 2026-05-01 14:32 | 49.60705 | 6.15908 | 1671 ft | 151 kts | 60° |
| 2026-05-01 14:32 | 49.61388 | 6.17758 | 1385 ft | 149 kts | 60° |
| 2026-05-01 14:32 | 49.61898 | 6.19125 | 1195 ft | 147 kts | 60° |
| 2026-05-01 14:33 | 49.62343 | 6.20331 | 1188 ft | 94 kts | 61° |
| 2026-05-01 14:33 | 49.62542 | 6.20881 | 1193 ft | 39 kts | 58° |
| 2026-05-01 14:33 | 49.62679 | 6.21116 | 1198 ft | 21 kts | 37° |
| 2026-05-01 14:33 | 49.62810 | 6.21236 | 1200 ft | 21 kts | 25° |
| 2026-05-01 14:34 | 49.62934 | 6.21356 | 1201 ft | 21 kts | 31° |
| 2026-05-01 14:34 | 49.63003 | 6.21426 | 1204 ft | 16 kts | 47° |
| 2026-05-01 14:34 | 49.63076 | 6.21653 | 1206 ft | 12 kts | 61° |
| 2026-05-01 14:34 | 49.63129 | 6.21765 | 1208 ft | 11 kts | 17° |
| 2026-05-01 14:35 | 49.63172 | 6.21749 | 1210 ft | 10 kts | 328° |
| 2026-05-01 14:35 | 49.63224 | 6.21701 | 1214 ft | 4 kts | 340° |
| 2026-05-01 14:35 | 49.63234 | 6.21734 | 1215 ft | 8 kts | 108° |
| 2026-05-01 14:35 | 49.63235 | 6.21784 | 1214 ft | 4 kts | 63° |
| 2026-05-01 14:36 | 49.63243 | 6.21820 | 1214 ft | 1 kts | 92° |